sensor_id;sensor_type;location;lat;lon;timestamp;temperature;humidity
31809;DHT22;18379;48.208;-1.518;2023-06-22T00:02:03;18.50;99.90
31809;DHT22;18379;48.208;-1.518;2023-06-22T00:07:04;18.60;99.90
31809;DHT22;18379;48.208;-1.518;2023-06-22T00:12:05;18.50;99.90
31809;DHT22;18379;48.208;-1.518;2023-06-22T00:17:06;18.50;99.90
31809;DHT22;18379;48.208;-1.518;2023-06-22T00:22:06;18.60;99.90
31809;DHT22;18379;48.208;-1.518;2023-06-22T00:27:07;18.50;99.90
31809;DHT22;18379;48.208;-1.518;2023-06-22T00:32:08;18.60;99.90
31809;DHT22;18379;48.208;-1.518;2023-06-22T00:37:09;18.60;99.90
31809;DHT22;18379;48.208;-1.518;2023-06-22T00:42:11;18.50;99.90
31809;DHT22;18379;48.208;-1.518;2023-06-22T00:47:14;18.60;99.90
31809;DHT22;18379;48.208;-1.518;2023-06-22T00:52:17;18.60;99.90
31809;DHT22;18379;48.208;-1.518;2023-06-22T00:57:22;18.70;99.90
31809;DHT22;18379;48.208;-1.518;2023-06-22T01:02:28;18.40;99.90
31809;DHT22;18379;48.208;-1.518;2023-06-22T01:07:31;18.30;99.90
31809;DHT22;18379;48.208;-1.518;2023-06-22T01:12:45;18.40;99.90
31809;DHT22;18379;48.208;-1.518;2023-06-22T01:17:50;18.40;99.90
31809;DHT22;18379;48.208;-1.518;2023-06-22T01:28:18;18.20;99.90
31809;DHT22;18379;48.208;-1.518;2023-06-22T01:33:20;18.10;99.90
31809;DHT22;18379;48.208;-1.518;2023-06-22T01:38:21;18.10;99.90
31809;DHT22;18379;48.208;-1.518;2023-06-22T01:43:25;18.10;99.90
31809;DHT22;18379;48.208;-1.518;2023-06-22T01:48:27;18.10;99.90
31809;DHT22;18379;48.208;-1.518;2023-06-22T01:53:29;18.00;99.90
31809;DHT22;18379;48.208;-1.518;2023-06-22T01:58:31;18.00;99.90
31809;DHT22;18379;48.208;-1.518;2023-06-22T02:03:35;18.00;99.90
31809;DHT22;18379;48.208;-1.518;2023-06-22T02:08:44;18.00;99.90
31809;DHT22;18379;48.208;-1.518;2023-06-22T02:13:47;18.00;99.90
31809;DHT22;18379;48.208;-1.518;2023-06-22T02:18:50;18.00;99.90
31809;DHT22;18379;48.208;-1.518;2023-06-22T02:23:51;18.00;99.90
31809;DHT22;18379;48.208;-1.518;2023-06-22T02:28:52;17.90;99.90
31809;DHT22;18379;48.208;-1.518;2023-06-22T02:33:53;17.90;99.90
31809;DHT22;18379;48.208;-1.518;2023-06-22T02:38:54;17.90;99.90
31809;DHT22;18379;48.208;-1.518;2023-06-22T02:43:56;17.90;99.90
31809;DHT22;18379;48.208;-1.518;2023-06-22T02:48:57;17.80;99.90
31809;DHT22;18379;48.208;-1.518;2023-06-22T02:53:58;17.90;99.90
31809;DHT22;18379;48.208;-1.518;2023-06-22T02:58:59;17.90;99.90
31809;DHT22;18379;48.208;-1.518;2023-06-22T03:04:03;18.00;99.90
31809;DHT22;18379;48.208;-1.518;2023-06-22T03:09:05;17.90;99.90
31809;DHT22;18379;48.208;-1.518;2023-06-22T03:14:06;17.90;99.90
31809;DHT22;18379;48.208;-1.518;2023-06-22T03:19:07;17.90;99.90
31809;DHT22;18379;48.208;-1.518;2023-06-22T03:24:07;17.90;99.90
31809;DHT22;18379;48.208;-1.518;2023-06-22T03:29:08;17.80;99.90
31809;DHT22;18379;48.208;-1.518;2023-06-22T03:34:09;17.70;99.90
31809;DHT22;18379;48.208;-1.518;2023-06-22T03:39:10;17.70;99.90
31809;DHT22;18379;48.208;-1.518;2023-06-22T03:44:11;17.70;99.90
31809;DHT22;18379;48.208;-1.518;2023-06-22T03:49:12;17.60;99.90
31809;DHT22;18379;48.208;-1.518;2023-06-22T03:54:13;17.50;99.90
31809;DHT22;18379;48.208;-1.518;2023-06-22T03:59:14;17.50;99.90
31809;DHT22;18379;48.208;-1.518;2023-06-22T04:04:15;17.50;99.90
31809;DHT22;18379;48.208;-1.518;2023-06-22T04:09:15;17.40;99.90
31809;DHT22;18379;48.208;-1.518;2023-06-22T04:14:16;17.40;99.90
31809;DHT22;18379;48.208;-1.518;2023-06-22T04:19:21;17.40;99.90
31809;DHT22;18379;48.208;-1.518;2023-06-22T04:24:28;17.40;99.90
31809;DHT22;18379;48.208;-1.518;2023-06-22T04:29:30;17.40;99.90
31809;DHT22;18379;48.208;-1.518;2023-06-22T04:34:31;17.40;99.90
31809;DHT22;18379;48.208;-1.518;2023-06-22T04:39:32;17.50;99.90
31809;DHT22;18379;48.208;-1.518;2023-06-22T04:44:33;17.60;99.90
31809;DHT22;18379;48.208;-1.518;2023-06-22T04:49:35;17.60;99.90
31809;DHT22;18379;48.208;-1.518;2023-06-22T04:54:40;17.60;99.90
31809;DHT22;18379;48.208;-1.518;2023-06-22T04:59:48;17.70;99.90
31809;DHT22;18379;48.208;-1.518;2023-06-22T05:04:49;17.60;99.90
31809;DHT22;18379;48.208;-1.518;2023-06-22T05:09:51;17.70;99.90
31809;DHT22;18379;48.208;-1.518;2023-06-22T05:14:52;17.70;99.90
31809;DHT22;18379;48.208;-1.518;2023-06-22T05:19:53;17.60;99.90
31809;DHT22;18379;48.208;-1.518;2023-06-22T05:24:54;17.60;99.90
31809;DHT22;18379;48.208;-1.518;2023-06-22T05:29:55;17.70;99.90
31809;DHT22;18379;48.208;-1.518;2023-06-22T05:34:55;17.70;99.90
31809;DHT22;18379;48.208;-1.518;2023-06-22T05:39:56;17.70;99.90
31809;DHT22;18379;48.208;-1.518;2023-06-22T05:44:57;17.80;99.90
31809;DHT22;18379;48.208;-1.518;2023-06-22T05:49:59;17.90;99.90
31809;DHT22;18379;48.208;-1.518;2023-06-22T05:55:02;18.00;99.90
31809;DHT22;18379;48.208;-1.518;2023-06-22T06:00:03;18.20;99.90
31809;DHT22;18379;48.208;-1.518;2023-06-22T06:05:07;18.20;99.90
31809;DHT22;18379;48.208;-1.518;2023-06-22T06:10:09;18.40;99.90
31809;DHT22;18379;48.208;-1.518;2023-06-22T06:15:10;18.50;99.90
31809;DHT22;18379;48.208;-1.518;2023-06-22T06:20:11;18.70;99.90
31809;DHT22;18379;48.208;-1.518;2023-06-22T06:25:13;18.80;99.90
31809;DHT22;18379;48.208;-1.518;2023-06-22T06:30:19;18.80;99.90
31809;DHT22;18379;48.208;-1.518;2023-06-22T06:35:20;18.80;99.90
31809;DHT22;18379;48.208;-1.518;2023-06-22T06:40:22;18.90;99.90
31809;DHT22;18379;48.208;-1.518;2023-06-22T06:45:23;19.00;99.90
31809;DHT22;18379;48.208;-1.518;2023-06-22T06:50:24;19.20;99.90
31809;DHT22;18379;48.208;-1.518;2023-06-22T06:55:25;19.20;99.90
31809;DHT22;18379;48.208;-1.518;2023-06-22T07:00:26;19.40;99.90
31809;DHT22;18379;48.208;-1.518;2023-06-22T07:05:27;19.50;99.90
31809;DHT22;18379;48.208;-1.518;2023-06-22T07:10:28;19.60;99.90
31809;DHT22;18379;48.208;-1.518;2023-06-22T07:15:29;19.70;99.90
31809;DHT22;18379;48.208;-1.518;2023-06-22T07:20:30;19.80;99.90
31809;DHT22;18379;48.208;-1.518;2023-06-22T07:25:31;19.80;99.90
31809;DHT22;18379;48.208;-1.518;2023-06-22T07:30:32;20.00;99.90
31809;DHT22;18379;48.208;-1.518;2023-06-22T07:35:33;20.20;99.90
31809;DHT22;18379;48.208;-1.518;2023-06-22T07:40:34;20.30;99.90
31809;DHT22;18379;48.208;-1.518;2023-06-22T07:45:35;20.60;99.90
31809;DHT22;18379;48.208;-1.518;2023-06-22T07:50:36;20.60;99.90
31809;DHT22;18379;48.208;-1.518;2023-06-22T07:55:37;20.50;99.90
31809;DHT22;18379;48.208;-1.518;2023-06-22T08:00:37;20.70;99.90
31809;DHT22;18379;48.208;-1.518;2023-06-22T08:05:39;20.70;99.90
31809;DHT22;18379;48.208;-1.518;2023-06-22T08:10:40;20.80;99.90
31809;DHT22;18379;48.208;-1.518;2023-06-22T08:15:41;20.90;99.90
31809;DHT22;18379;48.208;-1.518;2023-06-22T08:20:42;20.90;99.90
31809;DHT22;18379;48.208;-1.518;2023-06-22T08:25:43;21.10;99.90
31809;DHT22;18379;48.208;-1.518;2023-06-22T08:30:44;21.30;99.90
31809;DHT22;18379;48.208;-1.518;2023-06-22T08:35:44;21.20;99.90
31809;DHT22;18379;48.208;-1.518;2023-06-22T08:40:45;21.30;99.90
31809;DHT22;18379;48.208;-1.518;2023-06-22T08:45:46;21.40;99.90
31809;DHT22;18379;48.208;-1.518;2023-06-22T08:50:47;21.60;99.90
31809;DHT22;18379;48.208;-1.518;2023-06-22T08:55:48;21.70;99.90
31809;DHT22;18379;48.208;-1.518;2023-06-22T09:00:51;21.70;99.90
31809;DHT22;18379;48.208;-1.518;2023-06-22T09:05:52;21.70;99.90
31809;DHT22;18379;48.208;-1.518;2023-06-22T09:10:53;21.90;99.90
31809;DHT22;18379;48.208;-1.518;2023-06-22T09:15:53;21.80;99.90
31809;DHT22;18379;48.208;-1.518;2023-06-22T09:20:55;21.90;99.90
31809;DHT22;18379;48.208;-1.518;2023-06-22T09:25:56;21.90;99.90
31809;DHT22;18379;48.208;-1.518;2023-06-22T09:30:56;22.20;99.90
31809;DHT22;18379;48.208;-1.518;2023-06-22T09:35:59;22.30;99.90
31809;DHT22;18379;48.208;-1.518;2023-06-22T09:41:09;22.20;99.90
31809;DHT22;18379;48.208;-1.518;2023-06-22T09:46:10;22.60;99.90
31809;DHT22;18379;48.208;-1.518;2023-06-22T09:51:11;22.90;99.90
31809;DHT22;18379;48.208;-1.518;2023-06-22T09:56:12;22.80;99.90
31809;DHT22;18379;48.208;-1.518;2023-06-22T10:01:15;22.80;99.90
31809;DHT22;18379;48.208;-1.518;2023-06-22T10:07:07;23.30;99.90
31809;DHT22;18379;48.208;-1.518;2023-06-22T10:12:01;23.40;99.90
31809;DHT22;18379;48.208;-1.518;2023-06-22T10:17:02;23.30;99.90
31809;DHT22;18379;48.208;-1.518;2023-06-22T10:22:04;23.20;99.90
31809;DHT22;18379;48.208;-1.518;2023-06-22T10:27:06;23.80;99.90
31809;DHT22;18379;48.208;-1.518;2023-06-22T10:32:08;24.40;99.90
31809;DHT22;18379;48.208;-1.518;2023-06-22T10:37:09;24.00;99.90
31809;DHT22;18379;48.208;-1.518;2023-06-22T10:42:09;24.00;99.90
31809;DHT22;18379;48.208;-1.518;2023-06-22T10:47:10;24.00;99.90
31809;DHT22;18379;48.208;-1.518;2023-06-22T10:52:14;24.10;99.90
31809;DHT22;18379;48.208;-1.518;2023-06-22T10:57:15;24.10;99.90
31809;DHT22;18379;48.208;-1.518;2023-06-22T11:02:16;24.10;99.90
31809;DHT22;18379;48.208;-1.518;2023-06-22T11:07:16;23.80;99.90
31809;DHT22;18379;48.208;-1.518;2023-06-22T11:12:17;24.30;99.90
31809;DHT22;18379;48.208;-1.518;2023-06-22T11:17:18;24.30;99.90
31809;DHT22;18379;48.208;-1.518;2023-06-22T11:22:19;24.20;99.90
31809;DHT22;18379;48.208;-1.518;2023-06-22T11:27:20;24.40;99.90
31809;DHT22;18379;48.208;-1.518;2023-06-22T11:32:22;24.60;99.90
31809;DHT22;18379;48.208;-1.518;2023-06-22T11:37:23;24.40;99.90
31809;DHT22;18379;48.208;-1.518;2023-06-22T11:42:24;24.80;99.90
31809;DHT22;18379;48.208;-1.518;2023-06-22T11:47:25;24.90;99.90
31809;DHT22;18379;48.208;-1.518;2023-06-22T11:52:26;24.70;99.90
31809;DHT22;18379;48.208;-1.518;2023-06-22T11:57:27;24.80;99.90
31809;DHT22;18379;48.208;-1.518;2023-06-22T12:02:28;25.00;99.90
31809;DHT22;18379;48.208;-1.518;2023-06-22T12:07:29;24.90;99.90
31809;DHT22;18379;48.208;-1.518;2023-06-22T12:12:30;25.20;99.90
31809;DHT22;18379;48.208;-1.518;2023-06-22T12:17:30;25.20;99.90
31809;DHT22;18379;48.208;-1.518;2023-06-22T12:22:32;25.80;99.90
31809;DHT22;18379;48.208;-1.518;2023-06-22T12:27:34;25.90;99.90
31809;DHT22;18379;48.208;-1.518;2023-06-22T12:32:35;25.70;99.90
31809;DHT22;18379;48.208;-1.518;2023-06-22T12:37:35;26.10;99.90
31809;DHT22;18379;48.208;-1.518;2023-06-22T12:42:36;25.70;99.90
31809;DHT22;18379;48.208;-1.518;2023-06-22T12:47:37;25.40;99.90
31809;DHT22;18379;48.208;-1.518;2023-06-22T12:52:39;25.50;99.90
31809;DHT22;18379;48.208;-1.518;2023-06-22T12:57:41;25.30;99.90
31809;DHT22;18379;48.208;-1.518;2023-06-22T13:02:42;26.30;99.90
31809;DHT22;18379;48.208;-1.518;2023-06-22T13:07:43;25.90;99.90
31809;DHT22;18379;48.208;-1.518;2023-06-22T13:12:43;26.50;99.90
31809;DHT22;18379;48.208;-1.518;2023-06-22T13:17:44;26.40;99.90
31809;DHT22;18379;48.208;-1.518;2023-06-22T13:22:45;26.10;99.90
31809;DHT22;18379;48.208;-1.518;2023-06-22T13:27:46;25.70;99.90
31809;DHT22;18379;48.208;-1.518;2023-06-22T13:32:46;26.00;99.90
31809;DHT22;18379;48.208;-1.518;2023-06-22T13:37:47;26.80;99.90
31809;DHT22;18379;48.208;-1.518;2023-06-22T13:42:48;26.60;99.90
31809;DHT22;18379;48.208;-1.518;2023-06-22T13:47:49;26.50;99.90
31809;DHT22;18379;48.208;-1.518;2023-06-22T13:52:50;26.10;99.90
31809;DHT22;18379;48.208;-1.518;2023-06-22T13:57:51;26.40;99.90
31809;DHT22;18379;48.208;-1.518;2023-06-22T14:02:51;26.80;99.90
31809;DHT22;18379;48.208;-1.518;2023-06-22T14:07:52;26.90;99.90
31809;DHT22;18379;48.208;-1.518;2023-06-22T14:12:54;26.90;99.90
31809;DHT22;18379;48.208;-1.518;2023-06-22T14:17:58;26.90;99.90
31809;DHT22;18379;48.208;-1.518;2023-06-22T14:22:59;26.80;99.90
31809;DHT22;18379;48.208;-1.518;2023-06-22T14:28:00;26.40;99.90
31809;DHT22;18379;48.208;-1.518;2023-06-22T14:33:01;26.40;99.90
31809;DHT22;18379;48.208;-1.518;2023-06-22T14:38:02;26.60;99.90
31809;DHT22;18379;48.208;-1.518;2023-06-22T14:43:02;26.90;99.90
31809;DHT22;18379;48.208;-1.518;2023-06-22T14:48:03;27.00;99.90
31809;DHT22;18379;48.208;-1.518;2023-06-22T14:53:04;26.80;99.90
31809;DHT22;18379;48.208;-1.518;2023-06-22T14:58:05;26.80;99.90
31809;DHT22;18379;48.208;-1.518;2023-06-22T15:03:06;27.20;99.90
31809;DHT22;18379;48.208;-1.518;2023-06-22T15:08:08;27.40;99.90
31809;DHT22;18379;48.208;-1.518;2023-06-22T15:13:08;28.30;99.90
31809;DHT22;18379;48.208;-1.518;2023-06-22T15:18:10;28.70;99.90
31809;DHT22;18379;48.208;-1.518;2023-06-22T15:23:11;29.10;99.90
31809;DHT22;18379;48.208;-1.518;2023-06-22T15:28:12;28.70;99.90
31809;DHT22;18379;48.208;-1.518;2023-06-22T15:58:39;29.30;99.90
31809;DHT22;18379;48.208;-1.518;2023-06-22T16:22:52;29.30;99.90
31809;DHT22;18379;48.208;-1.518;2023-06-22T16:27:53;28.40;99.90
31809;DHT22;18379;48.208;-1.518;2023-06-22T16:32:55;28.20;99.90
31809;DHT22;18379;48.208;-1.518;2023-06-22T16:38:00;28.10;99.90
31809;DHT22;18379;48.208;-1.518;2023-06-22T16:43:01;29.30;99.90
31809;DHT22;18379;48.208;-1.518;2023-06-22T16:48:08;30.00;99.90
31809;DHT22;18379;48.208;-1.518;2023-06-22T16:53:20;28.40;99.90
31809;DHT22;18379;48.208;-1.518;2023-06-22T17:05:07;28.10;99.90
31809;DHT22;18379;48.208;-1.518;2023-06-22T17:10:47;28.00;99.90
31809;DHT22;18379;48.208;-1.518;2023-06-22T17:15:48;27.90;99.90
31809;DHT22;18379;48.208;-1.518;2023-06-22T17:20:52;27.60;99.90
31809;DHT22;18379;48.208;-1.518;2023-06-22T17:25:53;27.30;99.90
31809;DHT22;18379;48.208;-1.518;2023-06-22T17:31:21;27.60;99.90
31809;DHT22;18379;48.208;-1.518;2023-06-22T17:36:25;27.80;99.90
31809;DHT22;18379;48.208;-1.518;2023-06-22T17:41:32;27.40;99.90
31809;DHT22;18379;48.208;-1.518;2023-06-22T17:46:37;26.30;99.90
31809;DHT22;18379;48.208;-1.518;2023-06-22T17:51:41;26.30;99.90
31809;DHT22;18379;48.208;-1.518;2023-06-22T17:56:48;26.80;99.90
31809;DHT22;18379;48.208;-1.518;2023-06-22T18:01:49;26.30;99.90
31809;DHT22;18379;48.208;-1.518;2023-06-22T18:06:50;26.30;99.90
31809;DHT22;18379;48.208;-1.518;2023-06-22T18:24:15;24.80;99.90
31809;DHT22;18379;48.208;-1.518;2023-06-22T18:53:03;22.10;99.90
31809;DHT22;18379;48.208;-1.518;2023-06-22T19:04:20;21.80;99.90
31809;DHT22;18379;48.208;-1.518;2023-06-22T19:09:22;21.40;99.90
31809;DHT22;18379;48.208;-1.518;2023-06-22T19:14:23;21.20;99.90
31809;DHT22;18379;48.208;-1.518;2023-06-22T19:19:25;21.10;99.90
31809;DHT22;18379;48.208;-1.518;2023-06-22T19:24:48;21.20;99.90
31809;DHT22;18379;48.208;-1.518;2023-06-22T19:29:54;21.10;99.90
31809;DHT22;18379;48.208;-1.518;2023-06-22T19:40:22;20.90;99.90
31809;DHT22;18379;48.208;-1.518;2023-06-22T19:45:23;20.60;99.90
31809;DHT22;18379;48.208;-1.518;2023-06-22T19:50:25;20.50;99.90
31809;DHT22;18379;48.208;-1.518;2023-06-22T19:55:32;20.50;99.90
31809;DHT22;18379;48.208;-1.518;2023-06-22T20:00:33;20.30;99.90
31809;DHT22;18379;48.208;-1.518;2023-06-22T20:05:44;20.10;99.90
31809;DHT22;18379;48.208;-1.518;2023-06-22T20:10:48;20.00;99.90
31809;DHT22;18379;48.208;-1.518;2023-06-22T20:15:49;20.00;99.90
31809;DHT22;18379;48.208;-1.518;2023-06-22T20:20:49;19.70;99.90
31809;DHT22;18379;48.208;-1.518;2023-06-22T20:25:50;19.50;99.90
31809;DHT22;18379;48.208;-1.518;2023-06-22T20:31:08;19.40;99.90
31809;DHT22;18379;48.208;-1.518;2023-06-22T20:36:11;19.30;99.90
31809;DHT22;18379;48.208;-1.518;2023-06-22T20:41:13;19.00;99.90
31809;DHT22;18379;48.208;-1.518;2023-06-22T20:46:16;18.80;99.90
31809;DHT22;18379;48.208;-1.518;2023-06-22T20:51:17;18.70;99.90
31809;DHT22;18379;48.208;-1.518;2023-06-22T20:56:18;18.50;99.90
31809;DHT22;18379;48.208;-1.518;2023-06-22T21:01:19;18.40;99.90
31809;DHT22;18379;48.208;-1.518;2023-06-22T21:12:31;18.20;99.90
31809;DHT22;18379;48.208;-1.518;2023-06-22T21:17:33;18.30;99.90
31809;DHT22;18379;48.208;-1.518;2023-06-22T21:22:35;18.30;99.90
31809;DHT22;18379;48.208;-1.518;2023-06-22T21:33:25;18.20;99.90
31809;DHT22;18379;48.208;-1.518;2023-06-22T21:38:25;18.20;99.90
31809;DHT22;18379;48.208;-1.518;2023-06-22T22:09:00;17.50;99.90
31809;DHT22;18379;48.208;-1.518;2023-06-22T22:14:01;17.40;99.90
31809;DHT22;18379;48.208;-1.518;2023-06-22T22:19:17;17.30;99.90
31809;DHT22;18379;48.208;-1.518;2023-06-22T22:24:28;17.20;99.90
31809;DHT22;18379;48.208;-1.518;2023-06-22T22:29:29;17.00;99.90
31809;DHT22;18379;48.208;-1.518;2023-06-22T22:34:30;17.00;99.90
31809;DHT22;18379;48.208;-1.518;2023-06-22T22:39:35;17.00;99.90
31809;DHT22;18379;48.208;-1.518;2023-06-22T22:44:38;17.00;99.90
31809;DHT22;18379;48.208;-1.518;2023-06-22T22:49:39;17.10;99.90
31809;DHT22;18379;48.208;-1.518;2023-06-22T22:54:39;17.10;99.90
31809;DHT22;18379;48.208;-1.518;2023-06-22T22:59:43;16.90;99.90
31809;DHT22;18379;48.208;-1.518;2023-06-22T23:04:44;16.70;99.90
31809;DHT22;18379;48.208;-1.518;2023-06-22T23:09:45;16.70;99.90
31809;DHT22;18379;48.208;-1.518;2023-06-22T23:14:45;16.60;99.90
31809;DHT22;18379;48.208;-1.518;2023-06-22T23:19:46;16.60;99.90
31809;DHT22;18379;48.208;-1.518;2023-06-22T23:24:47;16.50;99.90
31809;DHT22;18379;48.208;-1.518;2023-06-22T23:29:48;16.40;99.90
31809;DHT22;18379;48.208;-1.518;2023-06-22T23:34:49;16.40;99.90
31809;DHT22;18379;48.208;-1.518;2023-06-22T23:39:50;16.30;99.90
31809;DHT22;18379;48.208;-1.518;2023-06-22T23:44:51;16.30;99.90
31809;DHT22;18379;48.208;-1.518;2023-06-22T23:49:52;16.40;99.90
31809;DHT22;18379;48.208;-1.518;2023-06-22T23:54:53;16.30;99.90
31809;DHT22;18379;48.208;-1.518;2023-06-22T23:59:54;16.30;99.90
